Time;durP1;ratioP1;P1;durP2;ratioP2;P2;SDS_P1;SDS_P2;PMS_P1;PMS_P2;Temp;Humidity;BMP_temperature;BMP_pressure;BME280_temperature;BME280_humidity;BME280_pressure;Samples;Min_cycle;Max_cycle;Signal;HPM_P1;HPM_P2
2022/08/10 00:01:24;;;;;;;5.68;4.03;;;;;;;;;;5025586;28;20255;-80
2022/08/10 00:03:50;;;;;;;6.60;4.82;;;;;;;;;;5024898;28;20473;-80
2022/08/10 00:06:15;;;;;;;5.55;4.07;;;;;;;;;;5026741;28;20040;-80
2022/08/10 00:08:40;;;;;;;4.97;4.13;;;;;;;;;;5027333;28;20043;-80
2022/08/10 00:11:06;;;;;;;6.25;4.15;;;;;;;;;;5037823;28;20040;-79
2022/08/10 00:13:33;;;;;;;5.70;4.30;;;;;;;;;;5042236;28;20104;-80
2022/08/10 00:15:59;;;;;;;6.75;4.32;;;;;;;;;;5028114;28;20316;-80
2022/08/10 00:18:25;;;;;;;6.03;4.47;;;;;;;;;;5032573;28;20219;-80
2022/08/10 00:20:50;;;;;;;6.55;4.53;;;;;;;;;;5026688;28;20053;-79
2022/08/10 00:23:16;;;;;;;5.72;4.60;;;;;;;;;;5023700;28;20029;-80
2022/08/10 00:25:41;;;;;;;4.93;4.03;;;;;;;;;;5027889;28;20625;-79
2022/08/10 00:28:06;;;;;;;6.25;4.55;;;;;;;;;;5012362;28;20039;-80
2022/08/10 00:30:34;;;;;;;4.30;3.90;;;;;;;;;;5025524;28;20040;-80
2022/08/10 00:32:59;;;;;;;4.32;3.90;;;;;;;;;;5021066;28;20049;-80
2022/08/10 00:35:25;;;;;;;6.40;4.38;;;;;;;;;;5038521;28;20041;-82
2022/08/10 00:37:50;;;;;;;5.55;4.25;;;;;;;;;;5024440;28;20032;-81
2022/08/10 00:40:15;;;;;;;4.63;4.03;;;;;;;;;;5025732;28;20582;-81
2022/08/10 00:42:41;;;;;;;5.60;4.25;;;;;;;;;;5023794;28;20341;-81
2022/08/10 00:45:06;;;;;;;6.30;4.07;;;;;;;;;;5037683;28;20143;-82
2022/08/10 00:47:32;;;;;;;5.68;4.30;;;;;;;;;;5037642;28;20043;-81
2022/08/10 00:49:57;;;;;;;6.22;4.50;;;;;;;;;;5024237;28;21885;-79
2022/08/10 00:52:24;;;;;;;5.38;4.18;;;;;;;;;;5023647;28;20040;-82
2022/08/10 00:54:50;;;;;;;5.65;4.72;;;;;;;;;;5024511;28;20253;-81
2022/08/10 00:57:16;;;;;;;5.43;4.35;;;;;;;;;;5023684;28;20063;-82
2022/08/10 00:59:42;;;;;;;6.05;4.70;;;;;;;;;;5021947;28;20037;-81
2022/08/10 01:02:07;;;;;;;6.38;4.50;;;;;;;;;;5022156;28;20031;-83
2022/08/10 01:04:32;;;;;;;5.55;4.43;;;;;;;;;;5037958;28;20045;-82
2022/08/10 01:07:00;;;;;;;8.82;5.07;;;;;;;;;;5019199;28;20118;-80
2022/08/10 01:09:28;;;;;;;6.18;4.63;;;;;;;;;;5038252;28;20040;-81
2022/08/10 01:11:58;;;;;;;6.82;4.68;;;;;;;;;;5042146;28;20056;-81
2022/08/10 01:14:32;;;;;;;5.13;4.57;;;;;;;;;;5024902;28;20187;-80
2022/08/10 01:17:24;;;;;;;5.93;4.90;;;;;;;;;;5024757;28;20040;-83
2022/08/10 01:19:56;;;;;;;6.05;5.00;;;;;;;;;;5018199;28;20085;-80
2022/08/10 01:22:33;;;;;;;7.47;4.80;;;;;;;;;;5021272;27;20037;-81
2022/08/10 01:25:17;;;;;;;7.70;5.10;;;;;;;;;;5020982;28;20050;-82
2022/08/10 01:27:52;;;;;;;5.68;4.53;;;;;;;;;;5052775;27;20037;-81
2022/08/10 01:30:19;;;;;;;6.32;4.85;;;;;;;;;;5054521;28;20045;-81
2022/08/10 01:33:04;;;;;;;5.72;4.97;;;;;;;;;;5024895;27;20041;-81
2022/08/10 01:35:39;;;;;;;7.28;5.55;;;;;;;;;;5052026;27;20132;-82
2022/08/10 01:38:06;;;;;;;7.65;6.00;;;;;;;;;;5021524;27;20033;-81
2022/08/10 01:40:34;;;;;;;8.40;5.63;;;;;;;;;;5017226;27;20291;-78
2022/08/10 01:43:03;;;;;;;6.22;5.60;;;;;;;;;;5002497;28;20286;-80
2022/08/10 01:45:29;;;;;;;7.00;5.65;;;;;;;;;;5052067;27;20037;-80
2022/08/10 01:50:43;;;;;;;8.05;5.97;;;;;;;;;;5021132;27;20039;-81
2022/08/10 01:53:10;;;;;;;10.00;6.68;;;;;;;;;;5020894;27;20044;-82
2022/08/10 01:55:36;;;;;;;7.35;6.00;;;;;;;;;;5024052;27;20501;-81
2022/08/10 01:58:03;;;;;;;9.13;6.10;;;;;;;;;;5025687;27;20056;-81
2022/08/10 02:00:29;;;;;;;10.23;6.47;;;;;;;;;;5023156;28;20037;-81
2022/08/10 02:02:55;;;;;;;9.93;7.00;;;;;;;;;;5025018;27;20063;-82
2022/08/10 02:05:23;;;;;;;10.57;7.75;;;;;;;;;;5023885;27;20048;-83
2022/08/10 02:07:49;;;;;;;10.18;7.00;;;;;;;;;;5023221;27;20033;-82
2022/08/10 02:10:15;;;;;;;9.85;7.43;;;;;;;;;;5022124;27;20083;-80
2022/08/10 02:12:42;;;;;;;8.80;7.57;;;;;;;;;;5004164;27;20033;-80
2022/08/10 02:15:12;;;;;;;8.77;7.65;;;;;;;;;;5025165;28;20134;-83
2022/08/10 02:17:39;;;;;;;9.93;8.07;;;;;;;;;;5039815;28;20134;-76
2022/08/10 02:20:07;;;;;;;10.43;8.48;;;;;;;;;;5024363;28;20460;-74
2022/08/10 02:22:33;;;;;;;10.82;8.77;;;;;;;;;;5022551;28;20063;-75
2022/08/10 02:24:59;;;;;;;10.25;7.80;;;;;;;;;;5039807;28;20474;-82
2022/08/10 02:27:26;;;;;;;9.15;8.18;;;;;;;;;;5022563;28;20060;-77
2022/08/10 02:29:52;;;;;;;10.32;8.55;;;;;;;;;;5021631;28;20105;-77
2022/08/10 02:32:20;;;;;;;11.77;8.60;;;;;;;;;;5027917;28;20500;-84
2022/08/10 02:34:46;;;;;;;11.63;8.88;;;;;;;;;;5024747;28;20041;-83
2022/08/10 02:37:12;;;;;;;11.60;8.68;;;;;;;;;;5024401;28;20134;-74
2022/08/10 02:39:37;;;;;;;11.10;8.75;;;;;;;;;;5020712;28;20052;-74
2022/08/10 02:42:09;;;;;;;12.07;9.48;;;;;;;;;;5025014;28;20463;-79
2022/08/10 02:44:35;;;;;;;15.35;9.70;;;;;;;;;;5029831;28;20497;-81
2022/08/10 02:47:10;;;;;;;12.90;9.52;;;;;;;;;;5027879;28;20039;-80
2022/08/10 02:49:43;;;;;;;10.43;8.77;;;;;;;;;;5024716;28;20036;-82
2022/08/10 02:52:13;;;;;;;12.70;8.77;;;;;;;;;;5029228;28;20028;-82
2022/08/10 02:54:43;;;;;;;12.27;9.85;;;;;;;;;;5025276;28;20250;-82
2022/08/10 02:57:15;;;;;;;12.77;9.63;;;;;;;;;;5025034;28;20331;-84
2022/08/10 02:59:51;;;;;;;11.98;9.80;;;;;;;;;;5027035;28;20036;-81
2022/08/10 03:02:33;;;;;;;14.13;9.55;;;;;;;;;;5026819;28;20116;-82
2022/08/10 03:05:06;;;;;;;12.85;9.93;;;;;;;;;;5026170;28;20090;-82
2022/08/10 03:07:36;;;;;;;13.38;9.57;;;;;;;;;;5039763;28;20141;-81
2022/08/10 03:10:02;;;;;;;13.45;9.88;;;;;;;;;;5027252;28;20342;-81
2022/08/10 03:12:28;;;;;;;12.68;10.20;;;;;;;;;;5027795;28;20252;-83
2022/08/10 03:14:55;;;;;;;14.18;10.80;;;;;;;;;;5025493;28;20493;-82
2022/08/10 03:17:21;;;;;;;13.25;10.27;;;;;;;;;;5027858;28;20032;-82
2022/08/10 03:19:46;;;;;;;14.32;11.30;;;;;;;;;;5025912;28;20146;-82
2022/08/10 03:22:13;;;;;;;13.80;10.77;;;;;;;;;;5026373;28;20077;-81
2022/08/10 03:24:42;;;;;;;14.32;10.75;;;;;;;;;;5037171;28;20109;-83
2022/08/10 03:27:07;;;;;;;14.30;10.70;;;;;;;;;;5037085;28;20036;-81
2022/08/10 03:29:34;;;;;;;16.25;10.50;;;;;;;;;;5022330;28;20037;-82
2022/08/10 03:31:59;;;;;;;13.88;10.85;;;;;;;;;;5022298;28;20172;-81
2022/08/10 03:34:27;;;;;;;18.17;11.15;;;;;;;;;;5025128;28;20075;-82
2022/08/10 03:36:53;;;;;;;14.65;10.73;;;;;;;;;;5023411;28;20820;-83
2022/08/10 03:39:21;;;;;;;17.80;12.35;;;;;;;;;;5040669;28;20062;-81
2022/08/10 03:41:54;;;;;;;19.95;13.68;;;;;;;;;;5039767;28;20036;-81
2022/08/10 03:44:20;;;;;;;26.45;17.08;;;;;;;;;;5023143;28;20116;-82
2022/08/10 03:46:46;;;;;;;22.67;14.68;;;;;;;;;;5022691;28;20595;-82
2022/08/10 03:49:12;;;;;;;19.15;12.82;;;;;;;;;;5025809;28;20379;-83
2022/08/10 03:51:38;;;;;;;15.55;11.52;;;;;;;;;;5025510;28;20457;-82
2022/08/10 03:54:03;;;;;;;16.77;10.95;;;;;;;;;;5040543;28;20166;-81
2022/08/10 03:56:29;;;;;;;13.50;11.02;;;;;;;;;;5024982;28;20492;-81
2022/08/10 03:58:55;;;;;;;15.18;10.63;;;;;;;;;;5022560;28;20047;-82
2022/08/10 04:01:21;;;;;;;14.80;10.60;;;;;;;;;;5038134;28;20468;-82
2022/08/10 04:03:46;;;;;;;15.50;11.65;;;;;;;;;;5025188;28;20041;-82
2022/08/10 04:06:12;;;;;;;14.77;10.95;;;;;;;;;;5024210;28;20202;-81
2022/08/10 04:08:41;;;;;;;13.98;10.95;;;;;;;;;;5028620;28;20028;-81
2022/08/10 04:11:09;;;;;;;13.68;10.52;;;;;;;;;;5026416;28;20067;-81
2022/08/10 04:13:34;;;;;;;11.27;9.52;;;;;;;;;;5038843;28;20340;-82
2022/08/10 04:15:59;;;;;;;14.68;10.15;;;;;;;;;;5025382;28;20033;-84
2022/08/10 04:18:25;;;;;;;11.95;9.65;;;;;;;;;;5040684;28;20063;-83
2022/08/10 04:21:13;;;;;;;12.25;8.93;;;;;;;;;;5025349;28;20032;-83
2022/08/10 04:23:42;;;;;;;11.73;8.57;;;;;;;;;;5021766;28;20122;-84
2022/08/10 04:26:08;;;;;;;13.02;8.32;;;;;;;;;;5021116;28;20287;-84
2022/08/10 04:28:34;;;;;;;11.20;8.32;;;;;;;;;;5023049;28;20036;-80
2022/08/10 04:31:00;;;;;;;12.07;7.88;;;;;;;;;;5022201;28;20041;-83
2022/08/10 04:33:28;;;;;;;9.30;8.23;;;;;;;;;;5026731;28;20112;-82
2022/08/10 04:35:54;;;;;;;10.82;7.75;;;;;;;;;;5024162;28;20059;-82
2022/08/10 04:38:22;;;;;;;12.07;8.45;;;;;;;;;;5022210;28;20416;-83
2022/08/10 04:40:47;;;;;;;11.55;8.13;;;;;;;;;;5021400;28;20323;-83
2022/08/10 04:43:13;;;;;;;12.98;8.88;;;;;;;;;;5022720;28;20348;-82
2022/08/10 04:45:40;;;;;;;10.35;8.65;;;;;;;;;;5039172;28;20741;-84
2022/08/10 04:48:05;;;;;;;11.15;8.63;;;;;;;;;;5012492;28;20923;-82
2022/08/10 04:50:30;;;;;;;11.80;8.55;;;;;;;;;;5020657;28;20157;-82
2022/08/10 04:52:56;;;;;;;9.68;8.48;;;;;;;;;;5025403;28;20036;-83
2022/08/10 04:55:44;;;;;;;11.52;9.25;;;;;;;;;;5011470;28;20052;-82
2022/08/10 04:58:27;;;;;;;8.80;7.90;;;;;;;;;;4937393;28;20408;-81
2022/08/10 05:00:52;;;;;;;11.02;8.05;;;;;;;;;;4946667;28;20064;-83
2022/08/10 05:03:17;;;;;;;10.52;8.07;;;;;;;;;;4922860;28;20048;-82
2022/08/10 05:05:46;;;;;;;12.30;8.70;;;;;;;;;;4937840;28;20213;-83
2022/08/10 05:08:11;;;;;;;10.23;8.38;;;;;;;;;;4925728;28;20584;-82
2022/08/10 05:10:37;;;;;;;11.38;8.68;;;;;;;;;;4948249;28;20108;-83
2022/08/10 05:13:07;;;;;;;12.20;8.85;;;;;;;;;;4917558;28;20061;-84
2022/08/10 05:15:33;;;;;;;12.57;8.93;;;;;;;;;;4927018;28;20041;-83
2022/08/10 05:17:58;;;;;;;9.13;8.18;;;;;;;;;;4944917;28;20345;-83
2022/08/10 05:20:24;;;;;;;11.10;8.02;;;;;;;;;;4934716;28;20482;-82
2022/08/10 05:22:49;;;;;;;9.80;7.97;;;;;;;;;;4948482;28;20065;-83
2022/08/10 05:25:16;;;;;;;10.45;8.35;;;;;;;;;;4948328;28;20400;-85
2022/08/10 05:27:42;;;;;;;10.82;8.63;;;;;;;;;;4930667;28;20244;-82
2022/08/10 05:30:09;;;;;;;10.07;8.32;;;;;;;;;;5009502;27;20372;-82
2022/08/10 05:32:36;;;;;;;12.23;8.30;;;;;;;;;;5011015;27;21228;-83
2022/08/10 05:35:04;;;;;;;11.43;8.13;;;;;;;;;;5041435;27;20412;-83
2022/08/10 05:37:32;;;;;;;14.00;8.63;;;;;;;;;;5019554;27;20037;-83
2022/08/10 05:39:59;;;;;;;10.70;7.88;;;;;;;;;;5028528;28;20081;-82
2022/08/10 05:42:25;;;;;;;14.23;8.60;;;;;;;;;;5026133;28;20074;-83
2022/08/10 05:44:56;;;;;;;12.75;8.30;;;;;;;;;;5037076;28;20348;-84
2022/08/10 05:47:22;;;;;;;11.38;8.68;;;;;;;;;;5034460;28;20354;-85
2022/08/10 05:49:48;;;;;;;12.60;7.97;;;;;;;;;;5028113;28;20446;-81
2022/08/10 05:52:13;;;;;;;10.40;8.13;;;;;;;;;;5018675;28;20032;-81
2022/08/10 05:54:39;;;;;;;11.15;8.05;;;;;;;;;;5026751;28;20033;-82
2022/08/10 05:57:04;;;;;;;13.05;8.73;;;;;;;;;;5010161;28;20040;-82
2022/08/10 05:59:32;;;;;;;10.10;8.00;;;;;;;;;;5038256;27;20099;-81
2022/08/10 06:01:59;;;;;;;11.77;7.65;;;;;;;;;;5048850;27;20362;-83
2022/08/10 06:04:29;;;;;;;10.27;7.90;;;;;;;;;;5037908;27;20417;-82
2022/08/10 06:06:57;;;;;;;11.77;8.10;;;;;;;;;;5021764;27;20040;-83
2022/08/10 06:09:23;;;;;;;10.40;7.70;;;;;;;;;;5049121;27;20712;-85
2022/08/10 06:11:50;;;;;;;10.60;7.63;;;;;;;;;;5046898;28;20436;-79
2022/08/10 06:17:04;;;;;;;9.30;7.60;;;;;;;;;;5026263;28;20624;-83
2022/08/10 06:19:30;;;;;;;8.85;7.40;;;;;;;;;;5028335;28;20469;-83
2022/08/10 06:22:00;;;;;;;9.93;7.05;;;;;;;;;;5028345;28;20456;-83
2022/08/10 06:24:27;;;;;;;10.98;7.80;;;;;;;;;;5022357;28;20259;-80
2022/08/10 06:26:55;;;;;;;10.55;7.78;;;;;;;;;;5026879;28;20215;-84
2022/08/10 06:29:25;;;;;;;12.98;7.47;;;;;;;;;;5032671;28;20036;-86
2022/08/10 06:31:54;;;;;;;11.82;8.07;;;;;;;;;;5029502;28;20044;-81
2022/08/10 06:34:21;;;;;;;13.13;8.07;;;;;;;;;;5030418;28;20060;-83
2022/08/10 06:36:47;;;;;;;10.75;6.82;;;;;;;;;;5038759;27;20087;-83
2022/08/10 06:39:12;;;;;;;10.00;6.78;;;;;;;;;;5053560;27;20198;-83
2022/08/10 06:41:41;;;;;;;11.23;6.45;;;;;;;;;;5029943;28;20792;-83
2022/08/10 06:44:09;;;;;;;8.50;6.40;;;;;;;;;;5029445;28;20040;-82
2022/08/10 06:46:36;;;;;;;6.60;5.38;;;;;;;;;;5042793;27;20027;-82
2022/08/10 06:49:12;;;;;;;8.43;5.75;;;;;;;;;;5020747;27;20032;-83
2022/08/10 06:51:39;;;;;;;9.25;5.63;;;;;;;;;;5023552;27;20024;-84
2022/08/10 06:54:08;;;;;;;8.18;5.22;;;;;;;;;;5027310;27;20449;-81
2022/08/10 06:56:43;;;;;;;6.43;5.50;;;;;;;;;;5021383;28;20188;-81
2022/08/10 06:59:12;;;;;;;7.97;6.13;;;;;;;;;;5027658;28;20040;-77
2022/08/10 07:01:42;;;;;;;7.95;5.55;;;;;;;;;;5024017;27;20131;-80
2022/08/10 07:04:16;;;;;;;7.40;5.68;;;;;;;;;;5032681;27;20032;-78
2022/08/10 07:06:43;;;;;;;5.80;5.28;;;;;;;;;;5019473;27;20270;-83
2022/08/10 07:09:10;;;;;;;7.55;5.10;;;;;;;;;;5014323;28;20817;-82
2022/08/10 07:11:37;;;;;;;8.10;5.38;;;;;;;;;;5014870;28;20746;-81
2022/08/10 07:14:06;;;;;;;7.13;5.22;;;;;;;;;;5042655;28;20028;-83
2022/08/10 07:16:36;;;;;;;9.63;5.80;;;;;;;;;;5029728;28;22501;-79
2022/08/10 07:19:04;;;;;;;7.40;5.30;;;;;;;;;;5024702;28;20075;-83
2022/08/10 07:21:32;;;;;;;6.43;5.47;;;;;;;;;;5025714;28;20561;-82
2022/08/10 07:23:58;;;;;;;9.13;5.65;;;;;;;;;;5036994;27;20668;-81
2022/08/10 07:26:24;;;;;;;8.55;5.45;;;;;;;;;;5033597;27;20588;-79
2022/08/10 07:28:53;;;;;;;8.00;6.20;;;;;;;;;;5015848;28;20039;-81
2022/08/10 07:31:20;;;;;;;8.15;6.15;;;;;;;;;;5034015;27;20032;-78
2022/08/10 07:33:48;;;;;;;7.70;6.00;;;;;;;;;;5029236;28;20257;-81
2022/08/10 07:36:13;;;;;;;7.95;5.65;;;;;;;;;;5024066;28;20536;-79
2022/08/10 07:38:40;;;;;;;8.88;5.55;;;;;;;;;;5023853;28;21750;-80
2022/08/10 07:41:06;;;;;;;8.13;5.28;;;;;;;;;;5025000;28;20085;-79
2022/08/10 07:43:34;;;;;;;9.73;5.60;;;;;;;;;;5025936;28;20079;-80
2022/08/10 07:46:03;;;;;;;8.68;5.18;;;;;;;;;;5026278;27;20056;-81
2022/08/10 07:48:31;;;;;;;8.05;5.10;;;;;;;;;;5021048;28;20332;-80
2022/08/10 07:51:00;;;;;;;7.85;5.10;;;;;;;;;;5036335;28;20033;-79
2022/08/10 07:53:29;;;;;;;9.13;4.85;;;;;;;;;;5025135;28;20117;-79
2022/08/10 07:55:54;;;;;;;9.23;5.03;;;;;;;;;;5030023;28;20619;-80
2022/08/10 07:58:23;;;;;;;9.63;5.05;;;;;;;;;;5039285;28;20351;-80
2022/08/10 08:00:55;;;;;;;6.28;4.43;;;;;;;;;;5023259;28;20579;-80
2022/08/10 08:03:27;;;;;;;7.00;4.22;;;;;;;;;;5022104;28;20033;-80
2022/08/10 08:05:53;;;;;;;7.97;4.60;;;;;;;;;;5025056;28;20226;-81
2022/08/10 08:08:19;;;;;;;7.70;4.45;;;;;;;;;;5026064;28;20086;-81
2022/08/10 08:10:45;;;;;;;9.07;4.43;;;;;;;;;;5022855;27;20467;-81
2022/08/10 08:13:11;;;;;;;8.07;4.57;;;;;;;;;;5018013;28;21643;-79
2022/08/10 08:15:37;;;;;;;7.35;3.95;;;;;;;;;;5010958;28;20152;-80
2022/08/10 08:18:04;;;;;;;6.07;4.13;;;;;;;;;;5025886;28;20132;-81
2022/08/10 08:20:30;;;;;;;9.38;4.40;;;;;;;;;;5027013;28;20098;-80
2022/08/10 08:22:58;;;;;;;6.55;4.00;;;;;;;;;;5025213;27;20424;-79
2022/08/10 08:25:26;;;;;;;5.65;3.88;;;;;;;;;;5032189;27;20294;-80
2022/08/10 08:27:54;;;;;;;5.15;3.78;;;;;;;;;;5055272;27;20037;-81
2022/08/10 08:30:20;;;;;;;6.93;3.33;;;;;;;;;;5045597;28;20104;-78
2022/08/10 08:32:47;;;;;;;10.77;3.83;;;;;;;;;;5065739;27;20039;-78
2022/08/10 08:35:14;;;;;;;5.70;3.78;;;;;;;;;;5052218;27;22132;-77
2022/08/10 08:37:39;;;;;;;5.13;3.55;;;;;;;;;;5047380;28;20048;-79
2022/08/10 08:40:10;;;;;;;4.22;2.95;;;;;;;;;;5033190;28;20249;-79
2022/08/10 08:42:54;;;;;;;6.93;3.90;;;;;;;;;;5049662;28;20043;-78
2022/08/10 08:45:20;;;;;;;6.03;3.78;;;;;;;;;;5060368;28;20052;-77
2022/08/10 08:48:04;;;;;;;5.47;4.00;;;;;;;;;;5043932;28;20037;-80
2022/08/10 08:50:43;;;;;;;7.68;4.10;;;;;;;;;;5044479;28;20040;-77
2022/08/10 08:53:11;;;;;;;5.50;3.88;;;;;;;;;;5044440;28;20066;-78
2022/08/10 08:55:44;;;;;;;6.60;4.47;;;;;;;;;;5042952;28;20036;-78
2022/08/10 08:58:13;;;;;;;8.02;4.00;;;;;;;;;;5045338;28;20040;-79
2022/08/10 09:00:39;;;;;;;6.20;3.42;;;;;;;;;;5041653;28;20036;-80
2022/08/10 09:03:23;;;;;;;5.60;3.17;;;;;;;;;;5055756;28;20036;-80
2022/08/10 09:06:09;;;;;;;5.57;3.50;;;;;;;;;;5041158;28;20048;-80
2022/08/10 09:08:50;;;;;;;7.60;3.67;;;;;;;;;;5041913;28;20115;-80
2022/08/10 09:11:27;;;;;;;6.88;2.90;;;;;;;;;;5044845;28;20071;-77
2022/08/10 09:14:07;;;;;;;7.07;3.38;;;;;;;;;;5042183;28;20059;-80
2022/08/10 09:16:36;;;;;;;6.80;3.40;;;;;;;;;;5038916;28;20047;-80
2022/08/10 09:19:05;;;;;;;5.65;3.58;;;;;;;;;;5040634;28;20048;-80
2022/08/10 09:21:49;;;;;;;6.75;3.55;;;;;;;;;;5044641;28;20071;-74
2022/08/10 09:24:19;;;;;;;5.95;2.95;;;;;;;;;;5050528;28;20088;-79
2022/08/10 09:26:44;;;;;;;6.13;3.00;;;;;;;;;;5042498;28;20040;-82
2022/08/10 09:29:12;;;;;;;5.35;3.10;;;;;;;;;;5053802;28;20033;-75
2022/08/10 09:31:43;;;;;;;6.40;3.55;;;;;;;;;;5013481;28;20052;-81
2022/08/10 09:34:08;;;;;;;;;;;;;;;;;;5021315;28;22334;-79
2022/08/10 09:36:40;;;;;;;5.47;2.80;;;;;;;;;;5041764;28;20073;-82
2022/08/10 09:39:14;;;;;;;8.27;2.47;;;;;;;;;;5034014;28;20263;-80
2022/08/10 09:41:48;;;;;;;4.88;1.95;;;;;;;;;;5040000;28;20568;-80
2022/08/10 09:44:26;;;;;;;5.93;2.15;;;;;;;;;;5038314;28;20200;-79
2022/08/10 09:46:57;;;;;;;4.75;2.20;;;;;;;;;;5058711;28;20113;-78
2022/08/10 09:49:41;;;;;;;6.68;2.30;;;;;;;;;;5032520;28;20024;-78
2022/08/10 09:52:06;;;;;;;4.47;1.85;;;;;;;;;;5042089;28;20287;-78
2022/08/10 09:54:32;;;;;;;4.78;1.88;;;;;;;;;;5043362;28;20584;-78
2022/08/10 09:57:12;;;;;;;4.95;1.92;;;;;;;;;;5042133;28;20037;-80
2022/08/10 09:59:44;;;;;;;3.77;1.80;;;;;;;;;;5042373;28;20037;-79
2022/08/10 10:02:28;;;;;;;5.00;2.03;;;;;;;;;;5043404;28;20029;-81
2022/08/10 10:05:11;;;;;;;5.13;1.48;;;;;;;;;;5044736;28;20132;-78
2022/08/10 10:07:38;;;;;;;3.88;1.63;;;;;;;;;;5047206;28;20092;-77
2022/08/10 10:10:18;;;;;;;2.92;1.40;;;;;;;;;;5037331;28;20043;-78
2022/08/10 10:12:43;;;;;;;3.57;1.63;;;;;;;;;;5025424;28;20461;-79
2022/08/10 10:15:30;;;;;;;4.47;1.55;;;;;;;;;;5028244;28;20420;-80
2022/08/10 10:18:01;;;;;;;2.55;1.50;;;;;;;;;;5019871;28;20167;-80
2022/08/10 10:20:45;;;;;;;5.18;1.50;;;;;;;;;;5036484;28;20191;-79
2022/08/10 10:23:10;;;;;;;3.20;1.40;;;;;;;;;;5013224;28;20029;-79
2022/08/10 10:25:40;;;;;;;4.60;1.58;;;;;;;;;;5018911;28;20089;-79
2022/08/10 10:28:25;;;;;;;2.83;1.17;;;;;;;;;;5019931;28;20152;-80
2022/08/10 10:31:03;;;;;;;4.47;1.40;;;;;;;;;;5007001;28;20103;-80
2022/08/10 10:33:31;;;;;;;5.00;1.30;;;;;;;;;;5021087;27;20047;-81
2022/08/10 10:35:58;;;;;;;4.10;1.42;;;;;;;;;;5020896;27;20036;-81
2022/08/10 10:38:31;;;;;;;2.38;1.13;;;;;;;;;;5021871;27;20501;-79
2022/08/10 10:41:02;;;;;;;3.20;1.20;;;;;;;;;;5028893;27;20117;-80
2022/08/10 10:43:37;;;;;;;3.05;1.25;;;;;;;;;;5046078;28;20424;-80
2022/08/10 10:46:03;;;;;;;3.58;1.30;;;;;;;;;;5045144;28;20553;-77
2022/08/10 10:48:38;;;;;;;4.72;1.48;;;;;;;;;;5050124;28;20041;-77
2022/08/10 10:51:14;;;;;;;4.78;1.30;;;;;;;;;;5047256;28;20093;-81
2022/08/10 10:53:48;;;;;;;2.85;1.27;;;;;;;;;;5043258;28;20489;-79
2022/08/10 10:56:26;;;;;;;6.25;1.40;;;;;;;;;;5059387;28;20058;-78
2022/08/10 10:59:05;;;;;;;7.35;1.20;;;;;;;;;;5060113;28;20628;-79
2022/08/10 11:01:43;;;;;;;3.20;1.10;;;;;;;;;;5046107;28;20032;-80
2022/08/10 11:04:19;;;;;;;2.75;1.15;;;;;;;;;;5047034;28;20406;-81
2022/08/10 11:06:49;;;;;;;3.75;1.20;;;;;;;;;;5049325;28;20096;-78
2022/08/10 11:09:19;;;;;;;3.35;1.23;;;;;;;;;;5062577;28;20104;-78
2022/08/10 11:11:47;;;;;;;2.45;1.30;;;;;;;;;;5043000;28;20029;-79
2022/08/10 11:14:21;;;;;;;3.45;1.10;;;;;;;;;;5046197;28;20343;-79
2022/08/10 11:16:52;;;;;;;2.97;1.00;;;;;;;;;;5060871;28;20726;-80
2022/08/10 11:19:19;;;;;;;2.95;1.17;;;;;;;;;;5044988;28;20498;-80
2022/08/10 11:22:03;;;;;;;4.45;1.23;;;;;;;;;;5035789;28;20812;-82
2022/08/10 11:24:38;;;;;;;2.15;1.00;;;;;;;;;;5046326;28;20056;-79
2022/08/10 11:27:03;;;;;;;5.25;1.20;;;;;;;;;;5044024;28;20175;-79
2022/08/10 11:29:44;;;;;;;3.92;1.25;;;;;;;;;;5058950;28;20112;-79
2022/08/10 11:32:12;;;;;;;9.63;1.17;;;;;;;;;;5043907;28;20032;-79
2022/08/10 11:34:45;;;;;;;3.22;0.90;;;;;;;;;;5041896;28;20036;-79
2022/08/10 11:37:10;;;;;;;4.68;1.40;;;;;;;;;;5047627;28;20052;-76
2022/08/10 11:40:02;;;;;;;3.85;1.40;;;;;;;;;;5044615;28;20099;-77
2022/08/10 11:42:38;;;;;;;4.43;1.30;;;;;;;;;;5019209;28;20313;-80
2022/08/10 11:45:12;;;;;;;2.40;1.00;;;;;;;;;;5054422;28;20075;-79
2022/08/10 11:47:40;;;;;;;3.55;1.00;;;;;;;;;;5041570;28;20053;-79
2022/08/10 11:50:22;;;;;;;3.50;1.30;;;;;;;;;;5023142;28;20059;-80
2022/08/10 11:53:08;;;;;;;5.40;0.95;;;;;;;;;;5024850;28;20063;-78
2022/08/10 11:55:33;;;;;;;4.30;1.20;;;;;;;;;;5020320;28;20036;-79
2022/08/10 12:00:58;;;;;;;3.17;0.90;;;;;;;;;;5021538;28;20054;-78
2022/08/10 12:03:26;;;;;;;2.55;1.10;;;;;;;;;;5022195;28;20032;-78
2022/08/10 12:05:53;;;;;;;3.42;1.10;;;;;;;;;;5021696;28;20533;-83
2022/08/10 12:08:20;;;;;;;4.72;1.05;;;;;;;;;;5021669;28;20052;-81
2022/08/10 12:10:48;;;;;;;2.22;1.00;;;;;;;;;;5023361;28;20090;-79
2022/08/10 12:13:17;;;;;;;3.38;1.10;;;;;;;;;;5021715;28;20036;-80
2022/08/10 12:16:03;;;;;;;4.72;1.08;;;;;;;;;;5034281;28;20560;-77
2022/08/10 12:18:34;;;;;;;2.95;1.05;;;;;;;;;;5019844;28;20860;-80
2022/08/10 12:21:03;;;;;;;4.10;1.20;;;;;;;;;;5020058;28;20367;-82
2022/08/10 12:23:38;;;;;;;1.63;0.90;;;;;;;;;;5035241;28;20630;-80
2022/08/10 12:26:07;;;;;;;2.08;1.05;;;;;;;;;;5020115;28;20765;-79
2022/08/10 12:28:37;;;;;;;4.25;1.00;;;;;;;;;;5008793;28;22347;-81
2022/08/10 12:31:07;;;;;;;4.47;0.90;;;;;;;;;;5020630;28;20037;-79
2022/08/10 12:33:45;;;;;;;1.88;0.88;;;;;;;;;;5023954;28;20729;-76
2022/08/10 12:36:21;;;;;;;3.13;1.00;;;;;;;;;;5025035;28;20082;-80
2022/08/10 12:39:09;;;;;;;2.92;0.90;;;;;;;;;;5023184;28;20777;-79
2022/08/10 12:42:01;;;;;;;2.70;1.00;;;;;;;;;;5025981;28;20277;-79
2022/08/10 12:44:34;;;;;;;3.67;0.90;;;;;;;;;;5031956;28;20041;-79
2022/08/10 12:47:12;;;;;;;4.22;1.00;;;;;;;;;;5032397;28;20056;-78
2022/08/10 12:49:57;;;;;;;2.55;1.00;;;;;;;;;;5020083;28;20627;-77
2022/08/10 12:52:31;;;;;;;4.97;1.10;;;;;;;;;;5025233;28;20033;-79
2022/08/10 12:55:00;;;;;;;2.53;1.00;;;;;;;;;;5035315;28;20319;-81
2022/08/10 12:57:28;;;;;;;2.00;1.08;;;;;;;;;;5037348;28;22049;-78
2022/08/10 12:59:57;;;;;;;3.92;0.77;;;;;;;;;;5038585;28;20210;-79
2022/08/10 13:02:23;;;;;;;2.55;1.00;;;;;;;;;;5035967;28;20238;-81
2022/08/10 13:04:52;;;;;;;3.28;0.90;;;;;;;;;;5036198;28;20075;-79
2022/08/10 13:07:22;;;;;;;2.72;1.02;;;;;;;;;;5036298;28;22226;-78
2022/08/10 13:09:48;;;;;;;3.42;0.90;;;;;;;;;;5037710;28;20097;-80
2022/08/10 13:12:14;;;;;;;4.82;0.95;;;;;;;;;;5040683;28;20219;-79
2022/08/10 13:14:42;;;;;;;2.00;1.00;;;;;;;;;;5048927;28;20175;-79
2022/08/10 13:17:08;;;;;;;3.05;0.95;;;;;;;;;;5038898;28;20063;-79
2022/08/10 13:19:36;;;;;;;1.85;1.00;;;;;;;;;;5037785;28;20041;-80
2022/08/10 13:22:02;;;;;;;1.50;0.90;;;;;;;;;;5038172;28;20095;-77
2022/08/10 13:24:32;;;;;;;1.80;0.80;;;;;;;;;;5038320;28;20028;-81
2022/08/10 13:27:02;;;;;;;4.55;1.10;;;;;;;;;;5040846;28;20071;-80
2022/08/10 13:29:29;;;;;;;2.05;0.90;;;;;;;;;;5045179;28;20188;-77
2022/08/10 13:31:59;;;;;;;3.63;1.00;;;;;;;;;;5043818;28;20580;-77
2022/08/10 13:34:25;;;;;;;2.58;1.10;;;;;;;;;;5057194;28;20120;-79
2022/08/10 13:36:54;;;;;;;3.00;0.90;;;;;;;;;;5043423;28;20032;-79
2022/08/10 13:39:23;;;;;;;5.13;1.00;;;;;;;;;;5056298;28;20036;-80
2022/08/10 13:41:50;;;;;;;4.22;1.15;;;;;;;;;;5040107;28;20119;-79
2022/08/10 13:44:32;;;;;;;1.75;0.85;;;;;;;;;;5051687;28;20025;-78
2022/08/10 13:46:58;;;;;;;1.60;1.00;;;;;;;;;;5019594;28;20412;-79
2022/08/10 13:49:25;;;;;;;4.32;0.90;;;;;;;;;;5019406;28;20071;-81
2022/08/10 13:51:52;;;;;;;3.33;1.00;;;;;;;;;;5020777;28;20037;-78
2022/08/10 13:54:19;;;;;;;3.05;0.90;;;;;;;;;;5018581;28;21964;-78
2022/08/10 13:56:46;;;;;;;2.92;1.00;;;;;;;;;;5017923;28;20036;-79
2022/08/10 13:59:12;;;;;;;2.80;1.00;;;;;;;;;;5019894;28;20240;-78
2022/08/10 14:01:44;;;;;;;5.90;1.08;;;;;;;;;;5022438;28;20040;-79
2022/08/10 14:04:12;;;;;;;2.22;1.00;;;;;;;;;;5034107;28;20029;-79
2022/08/10 14:06:39;;;;;;;3.90;1.10;;;;;;;;;;5019975;28;20106;-78
2022/08/10 14:09:09;;;;;;;4.22;1.00;;;;;;;;;;5018392;28;20348;-77
2022/08/10 14:11:36;;;;;;;4.57;1.20;;;;;;;;;;5018690;28;20127;-76
2022/08/10 14:14:04;;;;;;;3.95;1.05;;;;;;;;;;5017949;28;20333;-77
2022/08/10 14:16:30;;;;;;;1.98;1.00;;;;;;;;;;5021736;28;20144;-77
2022/08/10 14:18:58;;;;;;;2.10;1.00;;;;;;;;;;5022449;28;20123;-78
2022/08/10 14:21:24;;;;;;;3.03;1.10;;;;;;;;;;5023498;28;20661;-77
2022/08/10 14:23:50;;;;;;;3.38;1.20;;;;;;;;;;5022162;28;20333;-77
2022/08/10 14:26:29;;;;;;;2.80;1.23;;;;;;;;;;5021637;28;20682;-77
2022/08/10 14:29:21;;;;;;;1.77;1.00;;;;;;;;;;5023141;28;20711;-78
2022/08/10 14:31:52;;;;;;;2.85;1.00;;;;;;;;;;5024644;28;20143;-79
2022/08/10 14:34:18;;;;;;;2.50;1.00;;;;;;;;;;5024908;28;20178;-76
2022/08/10 14:36:52;;;;;;;3.55;1.00;;;;;;;;;;5026047;28;20281;-78
2022/08/10 14:39:29;;;;;;;2.90;1.13;;;;;;;;;;5018222;28;20450;-78
2022/08/10 14:41:58;;;;;;;2.42;1.20;;;;;;;;;;5011455;28;20520;-81
2022/08/10 14:44:29;;;;;;;4.07;1.17;;;;;;;;;;5025893;28;20041;-80
2022/08/10 14:46:56;;;;;;;4.18;1.27;;;;;;;;;;5023351;28;20038;-80
2022/08/10 14:49:23;;;;;;;5.78;1.02;;;;;;;;;;5023800;28;20563;-78
2022/08/10 14:51:49;;;;;;;1.90;1.13;;;;;;;;;;5021747;28;20158;-83
2022/08/10 14:54:16;;;;;;;3.42;1.33;;;;;;;;;;5028989;28;20029;-76
2022/08/10 14:56:42;;;;;;;3.47;1.00;;;;;;;;;;5022469;28;20060;-78
2022/08/10 14:59:08;;;;;;;3.45;1.00;;;;;;;;;;5022365;28;20922;-77
2022/08/10 15:01:35;;;;;;;3.65;1.40;;;;;;;;;;5024416;28;20028;-76